x

West Orca Bay - 8nm Nw Of Hinchinbrook Is , Ak (46060) Wave Buoy

7:50pm - Wed 29th Jul 2015 All times are AKDT. -8 hours from GMT.

  • Sig Wave height 1.0ft
  • Swell Direction
  • Peak Period 16s
  • Average Period 4s
  • Wind
    4mph, 7mph gusts
  • Sea Temp 60°f
  • Air Temp 59°f
  • Sea Pressure 1018mb
  • West Orca Bay - 8nm Nw Of Hinchinbrook  Is , Ak
  • West Orca Bay - 8nm Nw Of Hinchinbrook  Is , Ak

More Historic Weather Station data

Upgrade to MSW Pro to gain access to the past 30 days of data for over 8000 Wavebouys and Weather Stations around the globe.

Join Pro

Comparision Forecast

View Surf forecast
   
Wed 07/29 7:50pm 1ft 16s 4s 4 7 mph 1018mb 60f 59f
6:50pm 1ft 17s 4s 4 7 mph 1017.9mb 60f 59f
5:50pm 1ft 17s 4s 7 9 mph 1017.9mb 60f 59f
4:50pm 1ft 17s 4s 9
mph
1017.8mb 60f 58f
3:50pm 1ft 17s 5s 9 11 mph 1017.9mb 60f 58f
2:50pm  -   -   -  2 4 mph 1017.8mb 60f 59f
1:50pm 1.3ft 17s 4s 9 11 mph 1017.6mb 60f 58f
12:50pm 1.3ft 17s 4s 9 13 mph 1017.2mb 59f 58f
11:50am 1.3ft 17s 4s 11 13 mph 1017.1mb 59f 57f
10:50am 1.3ft 8s 4s 11 13 mph 1016.7mb 59f 57f
9:50am 1.3ft 7s 4s 11 13 mph 1016.5mb 59f 57f
7:50am 1.3ft 8s 4s 13 18 mph 1015.8mb 59f 56f
6:50am 1.3ft 3s 3s 11 13 mph 1015.7mb 59f 57f
5:50am 1.6ft 3s 3s 13 18 mph 1015.5mb 59f 57f
4:50am 1.3ft 3s 3s 13 16 mph 1015.1mb 59f 57f
3:50am 1.3ft 7s 3s 13 16 mph 1014.9mb 59f 57f
2:50am 1.6ft 8s 3s 11 16 mph 1014.8mb 60f 57f
1:50am 1.3ft 3s 4s 11 13 mph 1014.6mb 60f 58f
12:50am 1.3ft 3s 4s 9 11 mph 1014.3mb 60f 58f
Tue 07/28 11:50pm 1.3ft 8s 4s 9 11 mph 1014mb 59f 59f
10:50pm 1.6ft 8s 4s 11 13 mph 1013.6mb 59f 59f
9:50pm 1.6ft 8s 4s 9 13 mph 1013.3mb 59f 59f
8:50pm 1.6ft 7s 4s 11 13 mph 1013mb 60f 59f
7:50pm 1.3ft 7s 4s 11 13 mph 1012.9mb 61f 59f
6:50pm 1.6ft 8s 4s 4 7 mph 1012.8mb 61f 59f
5:50pm 1.3ft 8s 4s 9 11 mph 1012.6mb 61f 59f
4:50pm 1ft 8s 4s 9
mph
1012.4mb 60f 58f
3:50pm 1ft 8s 6s 9 11 mph 1011.8mb 60f 59f
2:50pm 1ft 8s 6s 9
mph
1011.4mb 61f 59f
1:50pm 1ft 17s 7s 4 7 mph 1011mb 61f 59f
12:50pm 0.7ft  -  5s 4
mph
1010.6mb 60f 59f
11:50am 1ft 17s 5s 7
mph
1010.1mb 60f 58f
10:50am 1ft 17s 6s 4 7 mph 1009.8mb 60f 58f
9:50am 0.7ft  -  5s 4 7 mph 1009.7mb 60f 58f
8:50am 1ft 6s 5s 7
mph
1009.5mb 59f 57f
7:50am 1ft 7s 5s 7 9 mph 1009.3mb 59f 57f
6:50am 1ft 8s 5s 9
mph
1009mb 59f 57f
5:50am 1ft 7s 6s 4 7 mph 1008.9mb 59f 56f
4:50am 1ft 7s 6s 7
mph
1008.8mb 59f 56f
3:50am 1ft 7s 5s 7
mph
1008.9mb 59f 57f
2:50am 1ft 8s 5s 4 7 mph 1008.8mb 59f 58f
1:50am 1ft 8s 4s 4
mph
1008.7mb 59f 58f
12:50am 1ft 7s 5s 4 7 mph 1008.5mb 59f 57f
Mon 07/27 11:50pm 1ft 8s 4s 7
mph
1008.3mb 59f 58f
10:50pm 1ft 7s 4s 7 9 mph 1008.2mb 59f 58f
9:50pm 1ft 7s 6s 7 11 mph 1007.8mb 59f 58f
8:50pm 1ft 8s 5s 2 4 mph 1007.6mb 59f 58f
7:50pm 1.3ft 7s 5s 2 4 mph 1007.5mb 59f 58f
6:50pm 1.3ft 8s 5s 4 7 mph 1007.2mb 59f 58f
5:50pm 1.3ft 8s 5s 4 7 mph 1007mb 59f 58f
4:50pm 1.3ft 8s 5s 7
mph
1006.9mb 59f 58f
3:50pm 1.3ft 7s 6s 7 9 mph 1006.8mb 59f 58f
2:50pm 1.3ft 7s 5s 4 7 mph 1006.3mb 59f 58f
1:50pm 1.3ft 8s 5s 9
mph
1005.9mb 58f 58f
12:50pm 1.3ft 7s 4s 11
mph
1005.6mb 58f 57f
11:50am 1.3ft 3s 4s 11 13 mph 1005.5mb 58f 57f
10:50am 2ft 8s 4s 11 13 mph 1005.3mb 57f 56f
9:50am 2.5ft 8s 4s 13 16 mph 1005.1mb 57f 56f
8:50am 2ft 7s 4s 13 16 mph 1005mb 57f 56f
7:50am 1.6ft 9s 4s 13 16 mph 1004.9mb 57f 55f
6:50am 1.6ft 9s 5s 11 13 mph 1005.1mb 58f 55f
5:50am 1.6ft 8s 4s 13 16 mph 1004.9mb 58f 55f
4:50am 1.6ft 7s 4s 16 18 mph 1004.7mb 58f 55f
3:50am 1.3ft 8s 4s 13 16 mph 1005mb 58f 55f
2:50am 1ft 9s 3s 13 16 mph 1005.1mb 57f 55f
1:50am 1.3ft 10s 3s 13 16 mph 1005.2mb 57f 55f
12:50am 1.3ft 10s 3s 16 18 mph 1005mb 57f 55f
Sun 07/26 11:50pm 1.6ft 3s 3s 16 18 mph 1005mb 57f 56f
10:50pm 1.6ft 3s 3s 16 20 mph 1005mb 57f 56f
9:50pm 1.6ft 3s 3s 18 20 mph 1004.9mb 57f 56f
8:50pm 1.6ft 3s 3s 18 20 mph 1005.1mb 57f 56f
7:50pm 1.6ft 3s 4s 16 20 mph 1005.3mb 57f 56f
6:50pm 2ft 4s 3s 18 22 mph 1005.3mb 57f 56f
5:50pm 2ft 4s 3s 18 22 mph 1005.4mb 58f 56f
4:50pm 2ft 3s 3s 20 22 mph 1005.3mb 58f 56f
3:50pm 2ft 3s 3s 20 25 mph 1005.2mb 58f 56f
2:50pm 2.5ft 3s 3s 20 25 mph 1005.1mb 58f 56f
1:50pm 2.5ft 3s 3s 20 22 mph 1005.2mb 59f 56f
12:50pm 2ft 3s 3s 20 22 mph 1004.9mb 58f 55f
11:50am 1.3ft 3s 3s 18 22 mph 1004.8mb 58f 55f
10:50am 1ft 6s 4s 13 16 mph 1005.2mb 58f 54f
9:50am 1ft 7s 4s 9 11 mph 1005.4mb 58f 55f
8:50am 1.3ft 7s 4s 9
mph
1005.5mb 58f 56f
7:50am 1.3ft 3s 3s 9 13 mph 1005.8mb 58f 56f
6:50am 1.6ft 3s 3s 16 18 mph 1006.1mb 58f 56f
5:50am 1.6ft 3s 3s 16 20 mph 1006.5mb 58f 56f
4:50am 2ft 3s 3s 18 20 mph 1007mb 58f 56f